createdAt,value
2019-06-27T00:00:29.452Z,7.93
2019-06-27T00:02:59.695Z,7.80
2019-06-27T00:05:30.065Z,7.80
2019-06-27T00:08:01.019Z,7.40
2019-06-27T00:10:34.251Z,7.60
2019-06-27T00:13:03.740Z,7.40
2019-06-27T00:15:33.674Z,7.67
2019-06-27T00:18:03.682Z,7.47
2019-06-27T00:20:33.527Z,8.60
2019-06-27T00:23:03.959Z,7.83
2019-06-27T00:25:34.693Z,7.60
2019-06-27T00:28:04.898Z,7.43
2019-06-27T00:30:34.694Z,7.30
2019-06-27T00:33:04.646Z,7.17
2019-06-27T00:35:34.701Z,7.50
2019-06-27T00:38:04.950Z,7.27
2019-06-27T00:40:35.215Z,7.40
2019-06-27T00:43:05.484Z,7.90
2019-06-27T00:45:35.936Z,7.40
2019-06-27T00:48:06.139Z,7.40
2019-06-27T00:50:36.131Z,7.47
2019-06-27T00:53:06.306Z,7.60
2019-06-27T00:55:36.741Z,7.60
2019-06-27T00:58:07.739Z,7.87
2019-06-27T01:00:37.897Z,7.60
2019-06-27T01:03:07.834Z,7.43
2019-06-27T01:05:38.067Z,7.07
2019-06-27T01:08:08.046Z,7.07
2019-06-27T01:10:38.150Z,7.10
2019-06-27T01:13:08.324Z,8.10
2019-06-27T01:15:38.566Z,7.30
2019-06-27T01:18:08.699Z,8.07
2019-06-27T01:20:39.479Z,7.90
2019-06-27T01:23:09.554Z,8.17
2019-06-27T01:25:39.438Z,8.30
2019-06-27T01:28:09.606Z,8.10
2019-06-27T01:30:40.014Z,8.33
2019-06-27T01:33:10.121Z,7.80
2019-06-27T01:35:39.926Z,7.87
2019-06-27T01:38:10.079Z,7.93
2019-06-27T01:40:40.305Z,8.37
2019-06-27T01:43:10.634Z,7.77
2019-06-27T01:45:51.697Z,8.57
2019-06-27T01:48:21.806Z,8.60
2019-06-27T01:50:52.083Z,8.63
2019-06-27T01:53:22.672Z,9.33
2019-06-27T01:55:52.941Z,9.53
2019-06-27T01:58:23.167Z,9.50
2019-06-27T02:00:53.604Z,9.40
2019-06-27T02:03:23.543Z,9.33
2019-06-27T02:05:53.799Z,10.07
2019-06-27T02:08:24.051Z,9.80
2019-06-27T02:10:54.232Z,9.97
2019-06-27T02:13:24.402Z,9.77
2019-06-27T02:15:54.522Z,11.70
2019-06-27T02:18:24.923Z,8.97
2019-06-27T02:20:54.880Z,8.87
2019-06-27T02:23:25.102Z,9.53
2019-06-27T02:25:55.314Z,8.93
2019-06-27T02:28:25.498Z,8.90
2019-06-27T02:30:55.340Z,9.73
2019-06-27T02:33:25.426Z,8.87
2019-06-27T02:35:55.319Z,8.23
2019-06-27T02:38:25.658Z,8.27
2019-06-27T02:40:58.719Z,8.80
2019-06-27T02:43:27.846Z,8.77
2019-06-27T02:45:57.958Z,9.40
2019-06-27T02:48:28.113Z,9.20
2019-06-27T02:50:58.228Z,10.00
2019-06-27T02:53:28.962Z,9.63
2019-06-27T02:55:59.115Z,10.40
2019-06-27T02:58:32.041Z,9.27
2019-06-27T03:01:00.858Z,9.73
2019-06-27T03:03:30.951Z,8.70
2019-06-27T03:06:01.101Z,9.07
2019-06-27T03:08:31.430Z,9.67
2019-06-27T03:11:02.107Z,10.37
2019-06-27T03:13:32.199Z,10.70
2019-06-27T03:16:02.299Z,9.70
2019-06-27T03:18:32.719Z,8.63
2019-06-27T03:21:03.074Z,9.53
2019-06-27T03:23:33.507Z,9.40
2019-06-27T03:26:03.261Z,9.40
2019-06-27T03:28:50.982Z,9.63
2019-06-27T03:31:05.210Z,9.90
2019-06-27T03:33:35.313Z,9.80
2019-06-27T03:36:05.489Z,9.77
2019-06-27T03:38:35.603Z,10.70
2019-06-27T03:41:05.726Z,10.87
2019-06-27T03:43:35.933Z,10.90
2019-06-27T03:46:06.262Z,10.67
2019-06-27T03:48:36.123Z,10.47
2019-06-27T03:51:05.986Z,10.13
2019-06-27T03:53:36.207Z,10.27
2019-06-27T03:56:05.994Z,10.50
2019-06-27T03:58:35.940Z,10.37
2019-06-27T04:01:05.937Z,10.03
2019-06-27T04:03:36.069Z,9.57
2019-06-27T04:06:06.488Z,10.10
2019-06-27T04:08:36.713Z,10.23
2019-06-27T04:11:07.030Z,10.33
2019-06-27T04:13:37.407Z,10.10
2019-06-27T04:16:07.547Z,10.87
2019-06-27T04:18:37.466Z,10.70
2019-06-27T04:21:07.392Z,10.47
2019-06-27T04:23:37.323Z,10.53
2019-06-27T04:26:07.501Z,10.83
2019-06-27T04:28:38.155Z,10.10
2019-06-27T04:31:08.706Z,10.43
2019-06-27T04:33:39.162Z,10.43
2019-06-27T04:36:09.235Z,10.67
2019-06-27T04:38:39.407Z,10.80
2019-06-27T04:41:09.387Z,10.90
2019-06-27T04:43:39.695Z,10.47
2019-06-27T04:46:09.870Z,10.00
2019-06-27T04:48:40.030Z,10.47
2019-06-27T04:51:09.861Z,9.43
2019-06-27T04:53:40.162Z,10.43
2019-06-27T04:56:10.955Z,10.10
2019-06-27T04:58:41.113Z,10.47
2019-06-27T05:01:11.403Z,10.60
2019-06-27T05:03:41.705Z,10.73
2019-06-27T05:06:12.170Z,10.43
2019-06-27T05:08:42.493Z,10.20
2019-06-27T05:11:12.946Z,10.73
2019-06-27T05:13:44.220Z,9.93
2019-06-27T05:16:14.354Z,11.07
2019-06-27T05:18:44.769Z,10.83
2019-06-27T05:21:14.793Z,10.00
2019-06-27T05:23:44.831Z,10.60
2019-06-27T05:26:15.277Z,10.93
2019-06-27T05:28:45.950Z,10.57
2019-06-27T05:31:16.120Z,10.63
2019-06-27T05:33:46.226Z,10.17
2019-06-27T05:36:16.797Z,10.07
2019-06-27T05:38:46.969Z,10.60
2019-06-27T05:41:16.828Z,10.60
2019-06-27T05:43:46.710Z,11.30
2019-06-27T05:46:16.534Z,10.23
2019-06-27T05:48:46.609Z,9.57
2019-06-27T05:51:16.609Z,10.30
2019-06-27T05:53:46.654Z,10.70
2019-06-27T05:56:17.089Z,11.13
2019-06-27T05:58:46.830Z,11.37
2019-06-27T06:01:16.761Z,11.13
2019-06-27T06:03:47.163Z,12.27
2019-06-27T06:06:17.761Z,13.37
2019-06-27T06:08:48.117Z,14.23
2019-06-27T06:11:18.531Z,13.10
2019-06-27T06:13:48.518Z,13.43
2019-06-27T06:16:18.607Z,13.07
2019-06-27T06:18:48.774Z,14.30
2019-06-27T06:21:18.919Z,12.97
2019-06-27T06:23:48.951Z,13.93
2019-06-27T06:26:19.315Z,13.63
2019-06-27T06:28:49.655Z,14.80
2019-06-27T06:31:20.582Z,13.07
2019-06-27T06:33:50.723Z,14.97
2019-06-27T06:36:20.834Z,14.23
2019-06-27T06:38:51.065Z,13.57
2019-06-27T06:41:21.294Z,14.03
2019-06-27T06:43:51.367Z,13.83
2019-06-27T06:46:21.517Z,14.13
2019-06-27T06:48:51.486Z,14.40
2019-06-27T06:51:21.511Z,13.70
2019-06-27T06:54:02.631Z,14.47
2019-06-27T06:56:32.649Z,14.70
2019-06-27T06:59:02.542Z,14.00
2019-06-27T07:01:32.682Z,13.03
2019-06-27T07:04:02.529Z,15.00
2019-06-27T07:06:33.016Z,15.03
2019-06-27T07:09:02.882Z,14.30
2019-06-27T07:11:32.783Z,13.93
2019-06-27T07:14:03.528Z,14.80
2019-06-27T07:16:33.393Z,13.73
2019-06-27T07:19:03.891Z,14.43
2019-06-27T07:21:34.217Z,14.00
2019-06-27T07:24:04.130Z,14.73
2019-06-27T07:26:34.365Z,14.10
2019-06-27T07:29:04.686Z,14.10
2019-06-27T07:31:34.893Z,15.20
2019-06-27T07:34:04.741Z,14.90
2019-06-27T07:36:34.878Z,16.77
2019-06-27T07:39:05.922Z,16.80
2019-06-27T07:41:36.651Z,16.30
2019-06-27T07:44:06.530Z,17.20
2019-06-27T07:46:36.393Z,17.43
2019-06-27T07:49:06.252Z,18.17
2019-06-27T07:51:36.373Z,18.52
2019-06-27T07:54:06.489Z,16.30
2019-06-27T07:56:36.491Z,17.15
2019-06-27T07:59:06.744Z,17.17
2019-06-27T08:01:36.641Z,15.83
2019-06-27T08:04:06.473Z,15.60
2019-06-27T08:06:36.502Z,16.50
2019-06-27T08:09:06.591Z,14.53
2019-06-27T08:11:36.478Z,14.73
2019-06-27T08:14:06.400Z,15.08
2019-06-27T08:16:36.561Z,14.90
2019-06-27T08:19:06.681Z,15.88
2019-06-27T08:21:36.513Z,15.20
2019-06-27T08:24:06.425Z,14.58
2019-06-27T08:26:36.265Z,13.90
2019-06-27T08:29:06.191Z,14.43
2019-06-27T08:31:50.593Z,14.05
2019-06-27T08:34:08.486Z,14.80
2019-06-27T08:36:38.517Z,13.95
2019-06-27T08:39:08.718Z,14.00
2019-06-27T08:41:39.492Z,14.85
2019-06-27T08:44:09.906Z,13.72
2019-06-27T08:46:39.754Z,13.35
2019-06-27T08:49:09.602Z,13.55
2019-06-27T08:51:39.530Z,13.90
2019-06-27T08:54:09.303Z,13.10
2019-06-27T08:56:39.200Z,13.70
2019-06-27T08:59:09.061Z,14.18
2019-06-27T09:01:39.214Z,14.00
2019-06-27T09:04:09.428Z,13.45
2019-06-27T09:06:39.930Z,14.85
2019-06-27T09:09:10.114Z,14.07
2019-06-27T09:11:40.504Z,14.63
2019-06-27T09:14:11.177Z,14.45
2019-06-27T09:16:41.333Z,13.60
2019-06-27T09:19:11.965Z,14.68
2019-06-27T09:21:41.699Z,14.00
2019-06-27T09:24:11.567Z,13.45
2019-06-27T09:26:41.281Z,13.65
2019-06-27T09:29:11.342Z,14.68
2019-06-27T09:31:41.752Z,15.50
2019-06-27T09:34:11.677Z,13.55
2019-06-27T09:36:41.607Z,12.82
2019-06-27T09:39:11.578Z,12.15
2019-06-27T09:41:41.514Z,13.38
2019-06-27T09:44:11.446Z,13.40
2019-06-27T09:46:41.595Z,13.80
2019-06-27T09:49:11.940Z,12.75
2019-06-27T09:51:42.117Z,12.30
2019-06-27T09:54:12.508Z,11.90
2019-06-27T09:56:43.027Z,13.55
2019-06-27T09:59:13.184Z,12.90
2019-06-27T10:01:43.327Z,12.65
2019-06-27T10:04:13.970Z,12.55
2019-06-27T10:06:44.173Z,11.85
2019-06-27T10:09:14.098Z,11.73
2019-06-27T10:11:43.913Z,12.58
2019-06-27T10:14:13.741Z,11.55
2019-06-27T10:16:44.462Z,12.90
2019-06-27T10:19:14.789Z,11.83
2019-06-27T10:21:45.010Z,10.93
2019-06-27T10:24:15.266Z,12.15
2019-06-27T10:26:45.451Z,11.35
2019-06-27T10:29:15.620Z,11.30
2019-06-27T10:31:46.054Z,11.35
2019-06-27T10:34:16.511Z,11.53
2019-06-27T10:36:46.457Z,11.33
2019-06-27T10:39:16.547Z,11.75
2019-06-27T10:41:47.189Z,12.03
2019-06-27T10:44:17.912Z,11.30
2019-06-27T10:46:48.159Z,10.90
2019-06-27T10:49:18.337Z,11.30
2019-06-27T10:51:48.491Z,11.25
2019-06-27T10:54:18.677Z,10.95
2019-06-27T10:56:48.618Z,10.98
2019-06-27T10:59:19.043Z,11.00
2019-06-27T11:01:49.194Z,10.93
2019-06-27T11:04:19.861Z,10.38
2019-06-27T11:06:50.341Z,11.73
2019-06-27T11:09:20.201Z,10.50
2019-06-27T11:11:50.594Z,11.53
2019-06-27T11:14:20.664Z,10.90
2019-06-27T11:16:50.939Z,11.60
2019-06-27T11:19:21.023Z,10.90
2019-06-27T11:21:51.506Z,12.60
2019-06-27T11:24:21.642Z,12.07
2019-06-27T11:26:52.446Z,11.57
2019-06-27T11:29:22.702Z,11.57
2019-06-27T11:31:52.764Z,10.75
2019-06-27T11:34:22.664Z,11.65
2019-06-27T11:36:52.889Z,11.40
2019-06-27T11:39:23.480Z,10.78
2019-06-27T11:41:53.593Z,10.60
2019-06-27T11:44:23.796Z,10.58
2019-06-27T11:46:53.994Z,10.72
2019-06-27T11:49:24.113Z,10.60
2019-06-27T11:51:54.280Z,11.33
2019-06-27T11:54:24.647Z,10.20
2019-06-27T11:56:55.107Z,11.10
2019-06-27T11:59:25.754Z,10.88
2019-06-27T12:01:55.984Z,10.80
2019-06-27T12:04:26.372Z,11.22
2019-06-27T12:06:57.453Z,10.68
2019-06-27T12:09:27.400Z,9.90
2019-06-27T12:11:57.360Z,11.25
2019-06-27T12:14:27.293Z,10.23
2019-06-27T12:16:57.213Z,10.50
2019-06-27T12:19:27.388Z,10.88
2019-06-27T12:21:57.591Z,9.88
2019-06-27T12:24:27.968Z,9.78
2019-06-27T12:26:58.291Z,8.85
2019-06-27T12:29:28.442Z,9.80
2019-06-27T12:31:59.049Z,9.78
2019-06-27T12:34:28.923Z,9.83
2019-06-27T12:36:59.197Z,9.23
2019-06-27T12:39:29.371Z,9.50
2019-06-27T12:41:59.485Z,9.58
2019-06-27T12:44:30.468Z,10.05
2019-06-27T12:47:00.889Z,9.45
2019-06-27T12:49:44.887Z,9.58
2019-06-27T12:52:03.074Z,9.85
2019-06-27T12:54:33.468Z,9.70
2019-06-27T12:57:03.614Z,9.28
2019-06-27T12:59:33.769Z,8.88
2019-06-27T13:02:03.659Z,9.75
2019-06-27T13:04:34.371Z,9.33
2019-06-27T13:07:04.268Z,8.53
2019-06-27T13:09:34.465Z,8.95
2019-06-27T13:12:04.761Z,8.68
2019-06-27T13:14:35.043Z,8.65
2019-06-27T13:17:05.168Z,8.78
2019-06-27T13:19:35.585Z,9.28
2019-06-27T13:22:05.827Z,9.10
2019-06-27T13:24:35.977Z,8.38
2019-06-27T13:27:05.989Z,8.63
2019-06-27T13:29:36.289Z,9.53
2019-06-27T13:32:07.145Z,8.55
2019-06-27T13:34:40.907Z,8.55
2019-06-27T13:37:08.909Z,8.68
2019-06-27T13:39:38.979Z,8.43
2019-06-27T13:42:09.934Z,8.65
2019-06-27T13:44:40.637Z,8.38
2019-06-27T13:47:10.867Z,7.72
2019-06-27T13:49:45.027Z,7.80
2019-06-27T13:52:13.393Z,8.45
2019-06-27T13:54:43.426Z,8.00
2019-06-27T13:57:13.980Z,7.45
2019-06-27T13:59:43.920Z,7.90
2019-06-27T14:02:14.272Z,7.53
2019-06-27T14:04:56.755Z,7.17
2019-06-27T14:07:16.104Z,7.12
2019-06-27T14:09:53.593Z,7.15
2019-06-27T14:12:18.119Z,6.75
2019-06-27T14:14:59.142Z,6.50
2019-06-27T14:17:20.641Z,6.90
2019-06-27T14:19:51.106Z,6.72
2019-06-27T14:22:32.928Z,6.25
2019-06-27T14:24:53.262Z,6.40
2019-06-27T14:27:23.409Z,6.75
2019-06-27T14:29:56.507Z,7.30
2019-06-27T14:32:25.422Z,6.80
2019-06-27T14:34:55.333Z,6.37
2019-06-27T14:37:25.383Z,6.55
2019-06-27T14:39:56.671Z,6.80
2019-06-27T14:42:26.881Z,6.08
2019-06-27T14:44:56.983Z,6.08
2019-06-27T14:47:27.414Z,6.33
2019-06-27T14:49:57.826Z,6.20
2019-06-27T14:52:28.142Z,6.30
2019-06-27T14:54:58.293Z,6.17
2019-06-27T14:57:28.798Z,6.17
2019-06-27T14:59:59.067Z,5.75
2019-06-27T15:02:29.474Z,6.03
2019-06-27T15:04:59.653Z,5.95
2019-06-27T15:07:29.572Z,6.05
2019-06-27T15:09:59.991Z,5.90
2019-06-27T15:12:35.871Z,6.40
2019-06-27T15:15:05.505Z,6.58
2019-06-27T15:17:35.939Z,6.55
2019-06-27T15:20:06.330Z,6.15
2019-06-27T15:22:36.594Z,5.72
2019-06-27T15:25:07.431Z,6.50
2019-06-27T15:27:37.969Z,5.78
2019-06-27T15:30:08.627Z,5.97
2019-06-27T15:32:38.753Z,5.37
2019-06-27T15:35:09.145Z,7.05
2019-06-27T15:37:39.320Z,5.87
2019-06-27T15:40:09.454Z,5.37
2019-06-27T15:42:39.701Z,5.83
2019-06-27T15:45:10.279Z,5.97
2019-06-27T15:47:40.433Z,5.67
2019-06-27T15:50:10.485Z,6.05
2019-06-27T15:52:40.634Z,5.45
2019-06-27T15:55:12.191Z,8.83
2019-06-27T15:57:43.140Z,6.08
2019-06-27T16:00:13.519Z,6.10
2019-06-27T16:02:43.485Z,6.47
2019-06-27T16:05:14.512Z,6.30
2019-06-27T16:07:44.493Z,6.53
2019-06-27T16:10:17.090Z,7.00
2019-06-27T16:12:47.233Z,6.45
2019-06-27T16:15:17.441Z,7.12
2019-06-27T16:17:47.317Z,7.28
2019-06-27T16:20:18.172Z,7.45
2019-06-27T16:22:48.352Z,7.78
2019-06-27T16:25:18.589Z,7.70
2019-06-27T16:27:53.409Z,7.58
2019-06-27T16:30:23.463Z,8.10
2019-06-27T16:32:53.906Z,7.65
2019-06-27T16:35:24.302Z,7.60
2019-06-27T16:37:54.281Z,7.62
2019-06-27T16:40:24.235Z,7.85
2019-06-27T16:42:55.799Z,8.00
2019-06-27T16:45:26.005Z,7.80
2019-06-27T16:47:56.157Z,7.83
2019-06-27T16:50:26.032Z,8.20
2019-06-27T16:52:56.177Z,7.53
2019-06-27T16:55:26.118Z,7.70
2019-06-27T16:57:56.045Z,7.72
2019-06-27T17:00:26.221Z,8.00
2019-06-27T17:02:56.166Z,8.03
2019-06-27T17:05:26.989Z,7.45
2019-06-27T17:07:57.156Z,7.60
2019-06-27T17:10:27.090Z,7.87
2019-06-27T17:12:56.998Z,8.08
2019-06-27T17:15:27.355Z,7.70
2019-06-27T17:17:57.358Z,7.40
2019-06-27T17:20:27.550Z,7.17
2019-06-27T17:22:58.014Z,7.60
2019-06-27T17:25:28.545Z,7.30
2019-06-27T17:27:59.127Z,6.90
2019-06-27T17:30:29.234Z,7.17
2019-06-27T17:32:59.765Z,7.28
2019-06-27T17:35:29.628Z,7.22
2019-06-27T17:38:00.290Z,7.10
2019-06-27T17:40:30.382Z,6.65
2019-06-27T17:43:00.607Z,6.80
2019-06-27T17:45:30.457Z,7.28
2019-06-27T17:48:00.838Z,6.35
2019-06-27T17:50:30.922Z,6.67
2019-06-27T17:53:02.074Z,6.50
2019-06-27T17:55:32.276Z,6.80
2019-06-27T17:58:02.202Z,6.58
2019-06-27T18:00:32.181Z,6.05
2019-06-27T18:03:02.028Z,5.97
2019-06-27T18:05:31.781Z,6.40
2019-06-27T18:08:02.010Z,6.47
2019-06-27T18:10:32.240Z,5.90
2019-06-27T18:13:02.173Z,5.65
2019-06-27T18:15:32.507Z,5.65
2019-06-27T18:18:02.810Z,5.90
2019-06-27T18:20:33.282Z,5.12
2019-06-27T18:23:03.605Z,5.15
2019-06-27T18:25:33.983Z,4.70
2019-06-27T18:28:03.996Z,4.72
2019-06-27T18:30:34.180Z,4.33
2019-06-27T18:33:04.428Z,4.10
2019-06-27T18:35:34.277Z,3.80
2019-06-27T18:38:04.145Z,3.95
2019-06-27T18:40:34.259Z,4.20
2019-06-27T18:43:04.473Z,3.92
2019-06-27T18:45:34.720Z,4.15
2019-06-27T18:48:05.240Z,4.50
2019-06-27T18:50:35.701Z,3.80
2019-06-27T18:53:05.974Z,3.27
2019-06-27T18:55:37.562Z,3.45
2019-06-27T18:58:07.791Z,3.15
2019-06-27T19:00:38.205Z,3.47
2019-06-27T19:03:08.262Z,3.50
2019-06-27T19:05:38.189Z,3.55
2019-06-27T19:08:08.554Z,3.20
2019-06-27T19:10:38.869Z,3.10
2019-06-27T19:13:08.744Z,2.90
2019-06-27T19:15:39.250Z,2.90
2019-06-27T19:18:28.753Z,3.08
2019-06-27T19:21:00.530Z,2.80
2019-06-27T19:23:47.803Z,2.72
2019-06-27T19:26:17.933Z,2.55
2019-06-27T19:28:47.878Z,2.45
2019-06-27T19:31:17.841Z,2.70
2019-06-27T19:33:47.968Z,2.50
2019-06-27T19:36:18.704Z,3.00
2019-06-27T19:38:49.133Z,2.60
2019-06-27T19:41:19.082Z,2.62
2019-06-27T19:43:49.627Z,2.92
2019-06-27T19:46:19.518Z,2.60
2019-06-27T19:48:49.771Z,2.40
2019-06-27T19:51:20.041Z,2.85
2019-06-27T19:53:50.290Z,2.42
2019-06-27T19:56:20.397Z,2.80
2019-06-27T19:58:50.562Z,2.50
2019-06-27T20:01:20.857Z,2.62
2019-06-27T20:03:50.741Z,2.50
2019-06-27T20:06:20.833Z,2.40
2019-06-27T20:08:50.880Z,2.30
2019-06-27T20:11:20.866Z,2.33
2019-06-27T20:13:51.146Z,2.80
2019-06-27T20:16:20.950Z,2.50
2019-06-27T20:18:51.561Z,2.50
2019-06-27T20:21:21.846Z,2.77
2019-06-27T20:23:54.234Z,3.55
2019-06-27T20:26:24.808Z,3.43
2019-06-27T20:28:54.970Z,3.57
2019-06-27T20:31:25.173Z,3.72
2019-06-27T20:33:55.907Z,4.17
2019-06-27T20:36:26.581Z,3.75
2019-06-27T20:38:57.046Z,2.70
2019-06-27T20:41:29.438Z,2.30
2019-06-27T20:43:59.257Z,2.30
2019-06-27T20:46:29.475Z,2.60
2019-06-27T20:48:59.526Z,2.30
2019-06-27T20:51:29.677Z,2.10
2019-06-27T20:53:59.617Z,2.00
2019-06-27T20:56:30.528Z,2.13
2019-06-27T20:59:00.602Z,2.20
2019-06-27T21:01:31.796Z,2.33
2019-06-27T21:04:02.017Z,2.50
2019-06-27T21:06:32.003Z,2.37
2019-06-27T21:09:02.510Z,2.30
2019-06-27T21:11:32.474Z,2.27
2019-06-27T21:14:02.900Z,2.50
2019-06-27T21:16:33.446Z,2.60
2019-06-27T21:19:03.681Z,2.10
2019-06-27T21:21:33.909Z,2.10
2019-06-27T21:24:04.883Z,1.90
2019-06-27T21:26:34.867Z,2.43
2019-06-27T21:29:05.082Z,2.10
2019-06-27T21:31:35.285Z,2.10
2019-06-27T21:34:05.234Z,2.10
2019-06-27T21:36:35.942Z,2.23
2019-06-27T21:39:07.882Z,2.40
2019-06-27T21:41:38.064Z,2.27
2019-06-27T21:44:08.763Z,2.83
2019-06-27T21:46:38.863Z,2.63
2019-06-27T21:49:11.288Z,1.90
2019-06-27T21:51:40.388Z,2.20
2019-06-27T21:54:10.737Z,1.80
2019-06-27T21:56:40.866Z,1.90
2019-06-27T21:59:11.594Z,1.83
2019-06-27T22:01:41.522Z,2.10
2019-06-27T22:04:12.109Z,2.00
2019-06-27T22:06:42.047Z,1.77
2019-06-27T22:09:23.886Z,1.77
2019-06-27T22:11:45.099Z,1.90
2019-06-27T22:14:15.354Z,2.20
2019-06-27T22:16:45.614Z,2.40
2019-06-27T22:19:16.203Z,2.70
2019-06-27T22:21:46.187Z,2.40
2019-06-27T22:24:16.521Z,2.30
2019-06-27T22:26:46.849Z,2.20
2019-06-27T22:29:17.245Z,2.40
2019-06-27T22:31:48.019Z,2.30
2019-06-27T22:34:17.848Z,2.00
2019-06-27T22:36:47.862Z,2.30
2019-06-27T22:39:40.308Z,2.17
2019-06-27T22:42:24.305Z,2.20
2019-06-27T22:45:12.102Z,2.20
2019-06-27T22:47:59.826Z,2.10
2019-06-27T22:50:47.700Z,2.13
2019-06-27T22:53:21.040Z,2.00
2019-06-27T22:55:51.277Z,1.83
2019-06-27T22:58:21.125Z,1.90
2019-06-27T23:00:51.093Z,2.33
2019-06-27T23:03:21.510Z,2.10
2019-06-27T23:05:51.970Z,2.07
2019-06-27T23:08:21.769Z,2.40
2019-06-27T23:10:51.785Z,2.30
2019-06-27T23:13:21.926Z,2.20
2019-06-27T23:15:52.351Z,2.17
2019-06-27T23:18:22.730Z,2.20
2019-06-27T23:20:52.644Z,1.90
2019-06-27T23:23:23.306Z,2.20
2019-06-27T23:25:53.451Z,1.83
2019-06-27T23:28:23.670Z,2.10
2019-06-27T23:30:53.612Z,1.80
2019-06-27T23:33:24.182Z,2.10
2019-06-27T23:35:54.264Z,2.00
2019-06-27T23:38:24.889Z,1.90
2019-06-27T23:40:55.216Z,1.80
2019-06-27T23:43:25.197Z,1.67
2019-06-27T23:45:55.725Z,2.07
2019-06-27T23:48:26.221Z,2.07
2019-06-27T23:50:56.118Z,2.33
2019-06-27T23:53:26.597Z,1.90
2019-06-27T23:55:57.286Z,2.07
2019-06-27T23:58:27.125Z,1.90
